sensor_id;sensor_type;location;lat;lon;timestamp;pressure;altitude;pressure_sealevel;temperature;humidity
81125;BME280;72192;52.114;5.424;2023-11-18T00:00:05;102527.81;;;3.76;100.00
81125;BME280;72192;52.114;5.424;2023-11-18T00:02:50;102526.09;;;3.74;100.00
81125;BME280;72192;52.114;5.424;2023-11-18T00:05:30;102520.69;;;3.76;100.00
81125;BME280;72192;52.114;5.424;2023-11-18T00:08:10;102529.69;;;3.73;100.00
81125;BME280;72192;52.114;5.424;2023-11-18T00:10:50;102527.91;;;3.74;100.00
81125;BME280;72192;52.114;5.424;2023-11-18T00:13:29;102520.50;;;3.79;100.00
81125;BME280;72192;52.114;5.424;2023-11-18T00:16:09;102529.22;;;3.83;100.00
81125;BME280;72192;52.114;5.424;2023-11-18T00:18:54;102522.16;;;3.82;100.00
81125;BME280;72192;52.114;5.424;2023-11-18T00:21:33;102533.69;;;3.82;100.00
81125;BME280;72192;52.114;5.424;2023-11-18T00:24:14;102533.56;;;3.85;100.00
81125;BME280;72192;52.114;5.424;2023-11-18T00:26:54;102531.59;;;3.89;100.00
81125;BME280;72192;52.114;5.424;2023-11-18T00:29:34;102529.78;;;3.89;100.00
81125;BME280;72192;52.114;5.424;2023-11-18T00:32:15;102521.69;;;3.91;100.00
81125;BME280;72192;52.114;5.424;2023-11-18T00:34:55;102522.63;;;3.90;100.00
81125;BME280;72192;52.114;5.424;2023-11-18T00:37:35;102516.72;;;3.83;100.00
81125;BME280;72192;52.114;5.424;2023-11-18T00:40:17;102506.28;;;3.79;100.00
81125;BME280;72192;52.114;5.424;2023-11-18T00:42:56;102515.47;;;3.73;100.00
81125;BME280;72192;52.114;5.424;2023-11-18T00:45:36;102508.56;;;3.69;100.00
81125;BME280;72192;52.114;5.424;2023-11-18T00:48:16;102508.88;;;3.63;100.00
81125;BME280;72192;52.114;5.424;2023-11-18T00:50:56;102517.13;;;3.58;100.00
81125;BME280;72192;52.114;5.424;2023-11-18T00:53:36;102528.00;;;3.54;100.00
81125;BME280;72192;52.114;5.424;2023-11-18T00:56:16;102522.06;;;3.49;100.00
81125;BME280;72192;52.114;5.424;2023-11-18T00:58:56;102531.63;;;3.53;100.00
81125;BME280;72192;52.114;5.424;2023-11-18T01:01:36;102519.88;;;3.57;100.00
81125;BME280;72192;52.114;5.424;2023-11-18T01:04:15;102542.00;;;3.59;100.00
81125;BME280;72192;52.114;5.424;2023-11-18T01:06:56;102545.38;;;3.62;100.00
81125;BME280;72192;52.114;5.424;2023-11-18T01:09:35;102536.22;;;3.68;100.00
81125;BME280;72192;52.114;5.424;2023-11-18T01:12:17;102539.50;;;3.73;100.00
81125;BME280;72192;52.114;5.424;2023-11-18T01:14:59;102534.13;;;3.74;100.00
81125;BME280;72192;52.114;5.424;2023-11-18T01:17:39;102539.91;;;3.83;100.00
81125;BME280;72192;52.114;5.424;2023-11-18T01:20:18;102539.53;;;3.90;100.00
81125;BME280;72192;52.114;5.424;2023-11-18T01:23:00;102542.06;;;3.93;100.00
81125;BME280;72192;52.114;5.424;2023-11-18T01:25:39;102543.84;;;3.93;100.00
81125;BME280;72192;52.114;5.424;2023-11-18T01:28:19;102551.00;;;3.92;100.00
81125;BME280;72192;52.114;5.424;2023-11-18T01:30:59;102550.22;;;3.90;100.00
81125;BME280;72192;52.114;5.424;2023-11-18T01:33:40;102548.66;;;3.86;100.00
81125;BME280;72192;52.114;5.424;2023-11-18T01:36:22;102538.66;;;3.72;100.00
81125;BME280;72192;52.114;5.424;2023-11-18T01:39:02;102537.84;;;3.70;100.00
81125;BME280;72192;52.114;5.424;2023-11-18T01:41:42;102545.97;;;3.69;100.00
81125;BME280;72192;52.114;5.424;2023-11-18T01:44:22;102537.84;;;3.70;100.00
81125;BME280;72192;52.114;5.424;2023-11-18T01:47:02;102533.16;;;3.76;100.00
81125;BME280;72192;52.114;5.424;2023-11-18T01:49:44;102528.44;;;3.81;100.00
81125;BME280;72192;52.114;5.424;2023-11-18T01:52:23;102529.94;;;3.86;100.00
81125;BME280;72192;52.114;5.424;2023-11-18T01:55:04;102531.50;;;3.90;100.00
81125;BME280;72192;52.114;5.424;2023-11-18T01:57:47;102522.53;;;3.91;100.00
81125;BME280;72192;52.114;5.424;2023-11-18T02:00:29;102528.63;;;3.95;100.00
81125;BME280;72192;52.114;5.424;2023-11-18T02:03:08;102533.69;;;3.99;100.00
81125;BME280;72192;52.114;5.424;2023-11-18T02:05:49;102523.72;;;4.03;100.00
81125;BME280;72192;52.114;5.424;2023-11-18T02:08:29;102532.53;;;4.05;100.00
81125;BME280;72192;52.114;5.424;2023-11-18T02:11:29;102528.91;;;4.06;100.00
81125;BME280;72192;52.114;5.424;2023-11-18T02:14:16;102535.81;;;4.10;100.00
81125;BME280;72192;52.114;5.424;2023-11-18T02:17:02;102538.28;;;4.15;100.00
81125;BME280;72192;52.114;5.424;2023-11-18T02:19:44;102543.34;;;4.19;100.00
81125;BME280;72192;52.114;5.424;2023-11-18T02:22:25;102536.13;;;4.21;100.00
81125;BME280;72192;52.114;5.424;2023-11-18T02:25:07;102535.25;;;4.21;100.00
81125;BME280;72192;52.114;5.424;2023-11-18T02:27:49;102538.97;;;4.18;100.00
81125;BME280;72192;52.114;5.424;2023-11-18T02:30:29;102544.31;;;4.18;100.00
81125;BME280;72192;52.114;5.424;2023-11-18T02:33:29;102541.56;;;4.20;100.00
81125;BME280;72192;52.114;5.424;2023-11-18T02:36:35;102536.13;;;4.21;100.00
81125;BME280;72192;52.114;5.424;2023-11-18T02:39:26;102536.84;;;4.25;100.00
81125;BME280;72192;52.114;5.424;2023-11-18T02:42:21;102528.75;;;4.26;100.00
81125;BME280;72192;52.114;5.424;2023-11-18T02:45:02;102526.75;;;4.30;100.00
81125;BME280;72192;52.114;5.424;2023-11-18T02:47:45;102521.25;;;4.33;100.00
81125;BME280;72192;52.114;5.424;2023-11-18T02:50:25;102521.94;;;4.37;100.00
81125;BME280;72192;52.114;5.424;2023-11-18T02:53:08;102510.31;;;4.38;100.00
81125;BME280;72192;52.114;5.424;2023-11-18T02:55:47;102520.84;;;4.41;100.00
81125;BME280;72192;52.114;5.424;2023-11-18T02:58:32;102504.69;;;4.42;100.00
81125;BME280;72192;52.114;5.424;2023-11-18T03:01:12;102499.34;;;4.42;100.00
81125;BME280;72192;52.114;5.424;2023-11-18T03:03:51;102497.56;;;4.43;100.00
81125;BME280;72192;52.114;5.424;2023-11-18T03:06:32;102496.75;;;4.41;100.00
81125;BME280;72192;52.114;5.424;2023-11-18T03:09:15;102497.63;;;4.41;100.00
81125;BME280;72192;52.114;5.424;2023-11-18T03:11:54;102495.13;;;4.38;100.00
81125;BME280;72192;52.114;5.424;2023-11-18T03:14:35;102496.06;;;4.37;100.00
81125;BME280;72192;52.114;5.424;2023-11-18T03:17:15;102498.84;;;4.36;100.00
81125;BME280;72192;52.114;5.424;2023-11-18T03:19:55;102498.84;;;4.36;100.00
81125;BME280;72192;52.114;5.424;2023-11-18T03:22:35;102496.06;;;4.37;100.00
81125;BME280;72192;52.114;5.424;2023-11-18T03:25:15;102496.00;;;4.39;100.00
81125;BME280;72192;52.114;5.424;2023-11-18T03:27:56;102483.56;;;4.38;100.00
81125;BME280;72192;52.114;5.424;2023-11-18T03:30:35;102480.81;;;4.39;100.00
81125;BME280;72192;52.114;5.424;2023-11-18T03:33:16;102481.69;;;4.40;100.00
81125;BME280;72192;52.114;5.424;2023-11-18T03:35:57;102489.56;;;4.43;100.00
81125;BME280;72192;52.114;5.424;2023-11-18T03:38:37;102479.72;;;4.43;100.00
81125;BME280;72192;52.114;5.424;2023-11-18T03:41:16;102476.00;;;4.46;100.00
81125;BME280;72192;52.114;5.424;2023-11-18T03:43:56;102467.97;;;4.46;100.00
81125;BME280;72192;52.114;5.424;2023-11-18T03:46:36;102465.22;;;4.47;100.00
81125;BME280;72192;52.114;5.424;2023-11-18T03:49:15;102446.78;;;4.43;100.00
81125;BME280;72192;52.114;5.424;2023-11-18T03:51:55;102457.97;;;4.49;100.00
81125;BME280;72192;52.114;5.424;2023-11-18T03:54:35;102448.13;;;4.50;100.00
81125;BME280;72192;52.114;5.424;2023-11-18T03:57:15;102432.94;;;4.50;100.00
81125;BME280;72192;52.114;5.424;2023-11-18T03:59:54;102430.38;;;4.49;100.00
81125;BME280;72192;52.114;5.424;2023-11-18T04:02:34;102433.91;;;4.49;100.00
81125;BME280;72192;52.114;5.424;2023-11-18T04:05:14;102424.16;;;4.48;100.00
81125;BME280;72192;52.114;5.424;2023-11-18T04:07:54;102412.59;;;4.48;100.00
81125;BME280;72192;52.114;5.424;2023-11-18T04:10:34;102409.06;;;4.47;100.00
81125;BME280;72192;52.114;5.424;2023-11-18T04:13:13;102408.19;;;4.47;100.00
81125;BME280;72192;52.114;5.424;2023-11-18T04:15:53;102409.84;;;4.49;100.00
81125;BME280;72192;52.114;5.424;2023-11-18T04:18:33;102414.94;;;4.54;100.00
81125;BME280;72192;52.114;5.424;2023-11-18T04:21:13;102423.66;;;4.57;100.00
81125;BME280;72192;52.114;5.424;2023-11-18T04:23:53;102413.63;;;4.61;100.00
81125;BME280;72192;52.114;5.424;2023-11-18T04:26:33;102412.63;;;4.64;100.00
81125;BME280;72192;52.114;5.424;2023-11-18T04:29:12;102393.81;;;4.65;100.00
81125;BME280;72192;52.114;5.424;2023-11-18T04:31:52;102385.78;;;4.65;100.00
81125;BME280;72192;52.114;5.424;2023-11-18T04:34:35;102390.19;;;4.66;100.00
81125;BME280;72192;52.114;5.424;2023-11-18T04:37:15;102389.22;;;4.67;100.00
81125;BME280;72192;52.114;5.424;2023-11-18T04:39:54;102373.94;;;4.69;100.00
81125;BME280;72192;52.114;5.424;2023-11-18T04:42:34;102381.00;;;4.70;100.00
81125;BME280;72192;52.114;5.424;2023-11-18T04:45:15;102371.25;;;4.69;100.00
81125;BME280;72192;52.114;5.424;2023-11-18T04:47:55;102372.97;;;4.70;100.00
81125;BME280;72192;52.114;5.424;2023-11-18T04:50:34;102364.97;;;4.70;100.00
81125;BME280;72192;52.114;5.424;2023-11-18T04:53:14;102366.69;;;4.71;100.00
81125;BME280;72192;52.114;5.424;2023-11-18T04:55:54;102358.75;;;4.70;100.00
81125;BME280;72192;52.114;5.424;2023-11-18T04:58:33;102370.16;;;4.73;100.00
81125;BME280;72192;52.114;5.424;2023-11-18T05:01:14;102366.53;;;4.74;100.00
81125;BME280;72192;52.114;5.424;2023-11-18T05:03:53;102367.19;;;4.78;100.00
81125;BME280;72192;52.114;5.424;2023-11-18T05:06:33;102364.44;;;4.79;100.00
81125;BME280;72192;52.114;5.424;2023-11-18T05:09:13;102368.84;;;4.80;100.00
81125;BME280;72192;52.114;5.424;2023-11-18T05:11:58;102372.31;;;4.82;100.00
81125;BME280;72192;52.114;5.424;2023-11-18T05:14:38;102372.22;;;4.84;100.00
81125;BME280;72192;52.114;5.424;2023-11-18T05:17:18;102368.59;;;4.85;100.00
81125;BME280;72192;52.114;5.424;2023-11-18T05:19:57;102361.41;;;4.85;100.00
81125;BME280;72192;52.114;5.424;2023-11-18T05:22:38;102355.97;;;4.87;100.00
81125;BME280;72192;52.114;5.424;2023-11-18T05:25:18;102346.22;;;4.86;100.00
81125;BME280;72192;52.114;5.424;2023-11-18T05:27:58;102340.78;;;4.87;100.00
81125;BME280;72192;52.114;5.424;2023-11-18T05:30:41;102333.59;;;4.88;100.00
81125;BME280;72192;52.114;5.424;2023-11-18T05:33:24;102341.63;;;4.88;100.00
81125;BME280;72192;52.114;5.424;2023-11-18T05:36:06;102337.91;;;4.90;100.00
81125;BME280;72192;52.114;5.424;2023-11-18T05:38:46;102333.41;;;4.91;100.00
81125;BME280;72192;52.114;5.424;2023-11-18T05:41:26;102345.78;;;4.94;100.00
81125;BME280;72192;52.114;5.424;2023-11-18T05:44:08;102346.66;;;4.94;100.00
81125;BME280;72192;52.114;5.424;2023-11-18T05:46:55;102333.41;;;4.91;100.00
81125;BME280;72192;52.114;5.424;2023-11-18T05:49:37;102326.25;;;4.92;100.00
81125;BME280;72192;52.114;5.424;2023-11-18T05:52:17;102333.34;;;4.93;100.00
81125;BME280;72192;52.114;5.424;2023-11-18T05:54:58;102325.22;;;4.94;100.00
81125;BME280;72192;52.114;5.424;2023-11-18T05:57:41;102320.75;;;4.95;100.00
81125;BME280;72192;52.114;5.424;2023-11-18T06:00:23;102304.59;;;4.96;100.00
81125;BME280;72192;52.114;5.424;2023-11-18T06:03:04;102303.63;;;4.97;100.00
81125;BME280;72192;52.114;5.424;2023-11-18T06:05:44;102309.94;;;4.96;100.00
81125;BME280;72192;52.114;5.424;2023-11-18T06:08:24;102307.06;;;4.99;100.00
81125;BME280;72192;52.114;5.424;2023-11-18T06:11:04;102306.13;;;5.00;100.00
81125;BME280;72192;52.114;5.424;2023-11-18T06:13:52;102299.75;;;5.03;100.00
81125;BME280;72192;52.114;5.424;2023-11-18T06:16:31;102298.69;;;5.05;100.00
81125;BME280;72192;52.114;5.424;2023-11-18T06:19:11;102296.78;;;5.07;100.00
81125;BME280;72192;52.114;5.424;2023-11-18T06:21:52;102292.09;;;5.11;100.00
81125;BME280;72192;52.114;5.424;2023-11-18T06:24:33;102300.91;;;5.13;100.00
81125;BME280;72192;52.114;5.424;2023-11-18T06:27:12;102305.31;;;5.14;100.00
81125;BME280;72192;52.114;5.424;2023-11-18T06:29:54;102301.69;;;5.15;100.00
81125;BME280;72192;52.114;5.424;2023-11-18T06:32:33;102289.16;;;5.15;100.00
81125;BME280;72192;52.114;5.424;2023-11-18T06:35:13;102282.06;;;5.14;100.00
81125;BME280;72192;52.114;5.424;2023-11-18T06:37:58;102284.75;;;5.14;100.00
81125;BME280;72192;52.114;5.424;2023-11-18T06:40:38;102283.91;;;5.14;100.00
81125;BME280;72192;52.114;5.424;2023-11-18T06:43:21;102294.41;;;5.17;100.00
81125;BME280;72192;52.114;5.424;2023-11-18T06:46:01;102297.09;;;5.17;100.00
81125;BME280;72192;52.114;5.424;2023-11-18T06:48:41;102291.81;;;5.15;100.00
81125;BME280;72192;52.114;5.424;2023-11-18T06:51:21;102295.38;;;5.16;100.00
81125;BME280;72192;52.114;5.424;2023-11-18T06:54:02;102292.69;;;5.16;100.00
81125;BME280;72192;52.114;5.424;2023-11-18T06:56:48;102294.50;;;5.15;100.00
81125;BME280;72192;52.114;5.424;2023-11-18T06:59:29;102300.81;;;5.14;100.00
81125;BME280;72192;52.114;5.424;2023-11-18T07:02:09;102302.53;;;5.15;100.00
81125;BME280;72192;52.114;5.424;2023-11-18T07:04:50;102296.22;;;5.16;100.00
81125;BME280;72192;52.114;5.424;2023-11-18T07:07:30;102291.94;;;5.14;100.00
81125;BME280;72192;52.114;5.424;2023-11-18T07:10:10;102283.91;;;5.14;100.00
81125;BME280;72192;52.114;5.424;2023-11-18T07:12:51;102283.03;;;5.13;100.00
81125;BME280;72192;52.114;5.424;2023-11-18T07:15:31;102294.59;;;5.14;100.00
81125;BME280;72192;52.114;5.424;2023-11-18T07:18:11;102294.50;;;5.15;100.00
81125;BME280;72192;52.114;5.424;2023-11-18T07:20:50;102300.72;;;5.16;100.00
81125;BME280;72192;52.114;5.424;2023-11-18T07:23:34;102303.28;;;5.17;100.00
81125;BME280;72192;52.114;5.424;2023-11-18T07:26:16;102295.16;;;5.19;100.00
81125;BME280;72192;52.114;5.424;2023-11-18T07:28:56;102300.53;;;5.19;100.00
81125;BME280;72192;52.114;5.424;2023-11-18T07:31:36;102313.06;;;5.18;100.00
81125;BME280;72192;52.114;5.424;2023-11-18T07:34:15;102320.31;;;5.16;100.00
81125;BME280;72192;52.114;5.424;2023-11-18T07:36:55;102315.81;;;5.17;100.00
81125;BME280;72192;52.114;5.424;2023-11-18T07:39:35;102330.84;;;5.19;100.00
81125;BME280;72192;52.114;5.424;2023-11-18T07:42:22;102336.13;;;5.21;100.00
81125;BME280;72192;52.114;5.424;2023-11-18T07:45:07;102326.28;;;5.22;100.00
81125;BME280;72192;52.114;5.424;2023-11-18T07:47:57;102317.19;;;5.24;100.00
81125;BME280;72192;52.114;5.424;2023-11-18T07:50:39;102304.75;;;5.23;100.00
81125;BME280;72192;52.114;5.424;2023-11-18T07:53:19;102298.53;;;5.23;100.00
81125;BME280;72192;52.114;5.424;2023-11-18T07:55:59;102299.50;;;5.22;100.00
81125;BME280;72192;52.114;5.424;2023-11-18T07:58:41;102286.13;;;5.22;100.00
81125;BME280;72192;52.114;5.424;2023-11-18T08:01:24;102288.59;;;5.25;100.00
81125;BME280;72192;52.114;5.424;2023-11-18T08:04:04;102291.94;;;5.28;100.00
81125;BME280;72192;52.114;5.424;2023-11-18T08:06:45;102281.13;;;5.30;100.00
81125;BME280;72192;52.114;5.424;2023-11-18T08:09:26;102273.94;;;5.30;100.00
81125;BME280;72192;52.114;5.424;2023-11-18T08:12:09;102272.81;;;5.34;100.00
81125;BME280;72192;52.114;5.424;2023-11-18T08:14:49;102275.50;;;5.34;100.00
81125;BME280;72192;52.114;5.424;2023-11-18T08:17:28;102259.44;;;5.34;100.00
81125;BME280;72192;52.114;5.424;2023-11-18T08:20:09;102251.22;;;5.37;100.00
81125;BME280;72192;52.114;5.424;2023-11-18T08:23:00;102259.13;;;5.39;100.00
81125;BME280;72192;52.114;5.424;2023-11-18T08:25:40;102259.03;;;5.40;100.00
81125;BME280;72192;52.114;5.424;2023-11-18T08:28:21;102245.38;;;5.45;100.00
81125;BME280;72192;52.114;5.424;2023-11-18T08:31:00;102248.81;;;5.47;100.00
81125;BME280;72192;52.114;5.424;2023-11-18T08:33:40;102241.53;;;5.49;100.00
81125;BME280;72192;52.114;5.424;2023-11-18T08:36:20;102235.16;;;5.52;100.00
81125;BME280;72192;52.114;5.424;2023-11-18T08:39:05;102237.53;;;5.56;100.00
81125;BME280;72192;52.114;5.424;2023-11-18T08:41:49;102228.31;;;5.60;100.00
81125;BME280;72192;52.114;5.424;2023-11-18T08:44:28;102219.16;;;5.64;100.00
81125;BME280;72192;52.114;5.424;2023-11-18T08:47:10;102216.16;;;5.69;100.00
81125;BME280;72192;52.114;5.424;2023-11-18T08:49:51;102222.97;;;5.74;100.00
81125;BME280;72192;52.114;5.424;2023-11-18T08:52:30;102220.09;;;5.78;100.00
81125;BME280;72192;52.114;5.424;2023-11-18T08:55:11;102220.66;;;5.83;100.00
81125;BME280;72192;52.114;5.424;2023-11-18T08:57:55;102205.22;;;5.86;100.00
81125;BME280;72192;52.114;5.424;2023-11-18T09:00:37;102204.88;;;5.92;100.00
81125;BME280;72192;52.114;5.424;2023-11-18T09:03:25;102202.75;;;5.97;100.00
81125;BME280;72192;52.114;5.424;2023-11-18T09:06:16;102204.38;;;6.00;100.00
81125;BME280;72192;52.114;5.424;2023-11-18T09:08:56;102196.03;;;6.04;100.00
81125;BME280;72192;52.114;5.424;2023-11-18T09:11:37;102182.41;;;6.08;100.00
81125;BME280;72192;52.114;5.424;2023-11-18T09:14:19;102181.44;;;6.09;100.00
81125;BME280;72192;52.114;5.424;2023-11-18T09:16:59;102168.03;;;6.09;100.00
81125;BME280;72192;52.114;5.424;2023-11-18T09:19:40;102167.00;;;6.11;100.00
81125;BME280;72192;52.114;5.424;2023-11-18T09:22:20;102163.25;;;6.14;100.00
81125;BME280;72192;52.114;5.424;2023-11-18T09:25:00;102161.31;;;6.16;100.00
81125;BME280;72192;52.114;5.424;2023-11-18T09:27:42;102158.63;;;6.16;100.00
81125;BME280;72192;52.114;5.424;2023-11-18T09:30:23;102157.78;;;6.15;100.00
81125;BME280;72192;52.114;5.424;2023-11-18T09:33:03;102144.38;;;6.15;100.00
81125;BME280;72192;52.114;5.424;2023-11-18T09:35:52;102140.84;;;6.15;100.00
81125;BME280;72192;52.114;5.424;2023-11-18T09:38:40;102140.72;;;6.16;100.00
81125;BME280;72192;52.114;5.424;2023-11-18T09:41:22;102134.50;;;6.16;100.00
81125;BME280;72192;52.114;5.424;2023-11-18T09:44:06;102121.09;;;6.16;100.00
81125;BME280;72192;52.114;5.424;2023-11-18T09:46:47;102096.31;;;6.12;100.00
81125;BME280;72192;52.114;5.424;2023-11-18T09:49:40;102096.31;;;6.12;100.00
81125;BME280;72192;52.114;5.424;2023-11-18T09:52:24;102101.81;;;6.11;100.00
81125;BME280;72192;52.114;5.424;2023-11-18T09:55:13;102104.47;;;6.11;100.00
81125;BME280;72192;52.114;5.424;2023-11-18T09:58:04;102111.56;;;6.12;100.00
81125;BME280;72192;52.114;5.424;2023-11-18T10:00:55;102111.56;;;6.12;100.00
81125;BME280;72192;52.114;5.424;2023-11-18T10:03:42;102115.19;;;6.11;100.00
81125;BME280;72192;52.114;5.424;2023-11-18T10:06:25;102102.66;;;6.11;100.00
81125;BME280;72192;52.114;5.424;2023-11-18T10:09:09;102114.34;;;6.10;100.00
81125;BME280;72192;52.114;5.424;2023-11-18T10:11:57;102106.31;;;6.10;100.00
81125;BME280;72192;52.114;5.424;2023-11-18T10:14:43;102093.84;;;6.09;100.00
81125;BME280;72192;52.114;5.424;2023-11-18T10:17:23;102096.50;;;6.09;100.00
81125;BME280;72192;52.114;5.424;2023-11-18T10:20:03;102089.44;;;6.08;100.00
81125;BME280;72192;52.114;5.424;2023-11-18T10:23:05;102084.00;;;6.10;100.00
81125;BME280;72192;52.114;5.424;2023-11-18T10:25:53;102098.16;;;6.12;100.00
81125;BME280;72192;52.114;5.424;2023-11-18T10:28:38;102095.59;;;6.10;100.00
81125;BME280;72192;52.114;5.424;2023-11-18T10:31:18;102095.47;;;6.12;100.00
81125;BME280;72192;52.114;5.424;2023-11-18T10:33:58;102106.84;;;6.15;100.00
81125;BME280;72192;52.114;5.424;2023-11-18T10:36:58;102092.47;;;6.16;100.00
81125;BME280;72192;52.114;5.424;2023-11-18T10:39:40;102072.72;;;6.17;100.00
81125;BME280;72192;52.114;5.424;2023-11-18T10:42:20;102075.31;;;6.19;100.00
81125;BME280;72192;52.114;5.424;2023-11-18T10:45:00;102068.03;;;6.21;100.00
81125;BME280;72192;52.114;5.424;2023-11-18T10:47:42;102059.13;;;6.20;100.00
81125;BME280;72192;52.114;5.424;2023-11-18T10:50:22;102058.16;;;6.21;100.00
81125;BME280;72192;52.114;5.424;2023-11-18T10:53:08;102053.44;;;6.25;100.00
81125;BME280;72192;52.114;5.424;2023-11-18T10:55:49;102052.38;;;6.27;100.00
81125;BME280;72192;52.114;5.424;2023-11-18T10:58:35;102044.22;;;6.29;100.00
81125;BME280;72192;52.114;5.424;2023-11-18T11:01:29;102028.13;;;6.29;100.00
81125;BME280;72192;52.114;5.424;2023-11-18T11:04:17;102028.22;;;6.27;100.00
81125;BME280;72192;52.114;5.424;2023-11-18T11:07:03;102023.72;;;6.28;100.00
81125;BME280;72192;52.114;5.424;2023-11-18T11:09:43;102024.38;;;6.31;100.00
81125;BME280;72192;52.114;5.424;2023-11-18T11:12:25;102024.38;;;6.31;100.00
81125;BME280;72192;52.114;5.424;2023-11-18T11:15:18;102019.75;;;6.33;100.00
81125;BME280;72192;52.114;5.424;2023-11-18T11:18:21;102017.09;;;6.33;100.00
81125;BME280;72192;52.114;5.424;2023-11-18T11:21:19;101996.38;;;6.36;100.00
81125;BME280;72192;52.114;5.424;2023-11-18T11:24:04;101960.75;;;6.33;100.00
81125;BME280;72192;52.114;5.424;2023-11-18T11:27:01;101948.09;;;6.36;100.00
81125;BME280;72192;52.114;5.424;2023-11-18T11:30:02;101922.00;;;6.38;100.00
81125;BME280;72192;52.114;5.424;2023-11-18T11:32:53;101894.13;;;6.40;100.00
81125;BME280;72192;52.114;5.424;2023-11-18T11:35:50;101889.41;;;6.44;100.00
81125;BME280;72192;52.114;5.424;2023-11-18T11:38:37;101887.34;;;6.47;100.00
81125;BME280;72192;52.114;5.424;2023-11-18T11:41:18;101874.69;;;6.49;100.00
81125;BME280;72192;52.114;5.424;2023-11-18T11:44:05;101893.25;;;6.52;100.00
81125;BME280;72192;52.114;5.424;2023-11-18T11:46:47;101883.03;;;6.57;100.00
81125;BME280;72192;52.114;5.424;2023-11-18T11:49:41;101872.28;;;6.57;100.00
81125;BME280;72192;52.114;5.424;2023-11-18T11:52:33;101880.00;;;6.62;100.00
81125;BME280;72192;52.114;5.424;2023-11-18T11:58:29;101836.63;;;6.68;100.00
81125;BME280;72192;52.114;5.424;2023-11-18T12:01:24;101823.00;;;6.71;100.00
81125;BME280;72192;52.114;5.424;2023-11-18T12:04:16;101819.94;;;6.76;100.00
81125;BME280;72192;52.114;5.424;2023-11-18T12:06:59;101837.63;;;6.78;100.00
81125;BME280;72192;52.114;5.424;2023-11-18T12:09:41;101815.97;;;6.81;100.00
81125;BME280;72192;52.114;5.424;2023-11-18T12:12:22;101801.31;;;6.85;100.00
81125;BME280;72192;52.114;5.424;2023-11-18T12:15:05;101801.84;;;6.90;100.00
81125;BME280;72192;52.114;5.424;2023-11-18T12:20:40;101785.16;;;6.98;100.00
81125;BME280;72192;52.114;5.424;2023-11-18T12:23:27;101780.41;;;7.02;100.00
81125;BME280;72192;52.114;5.424;2023-11-18T12:26:39;101782.00;;;7.04;100.00
81125;BME280;72192;52.114;5.424;2023-11-18T12:29:34;101768.44;;;7.06;100.00
81125;BME280;72192;52.114;5.424;2023-11-18T12:41:37;101727.44;;;7.04;100.00
81125;BME280;72192;52.114;5.424;2023-11-18T12:44:30;101721.94;;;7.05;100.00
81125;BME280;72192;52.114;5.424;2023-11-18T12:47:20;101729.03;;;7.06;100.00
81125;BME280;72192;52.114;5.424;2023-11-18T12:50:09;101719.25;;;7.05;100.00
81125;BME280;72192;52.114;5.424;2023-11-18T12:52:56;101718.28;;;7.06;100.00
81125;BME280;72192;52.114;5.424;2023-11-18T12:55:39;101680.81;;;7.05;100.00
81125;BME280;72192;52.114;5.424;2023-11-18T12:58:20;101633.34;;;7.05;100.00
81125;BME280;72192;52.114;5.424;2023-11-18T13:01:01;101586.00;;;7.04;100.00
81125;BME280;72192;52.114;5.424;2023-11-18T13:03:41;101577.81;;;7.06;100.00
81125;BME280;72192;52.114;5.424;2023-11-18T13:06:22;101596.59;;;7.06;100.00
81125;BME280;72192;52.114;5.424;2023-11-18T13:09:06;101585.88;;;7.06;100.00
81125;BME280;72192;52.114;5.424;2023-11-18T13:11:47;101603.69;;;7.07;100.00
81125;BME280;72192;52.114;5.424;2023-11-18T13:14:28;101596.38;;;7.09;100.00
81125;BME280;72192;52.114;5.424;2023-11-18T13:17:15;101605.28;;;7.09;100.00
81125;BME280;72192;52.114;5.424;2023-11-18T13:19:55;101600.66;;;7.11;100.00
81125;BME280;72192;52.114;5.424;2023-11-18T13:22:36;101607.72;;;7.12;100.00
81125;BME280;72192;52.114;5.424;2023-11-18T13:25:17;101612.25;;;7.12;100.00
81125;BME280;72192;52.114;5.424;2023-11-18T13:27:57;101605.03;;;7.12;100.00
81125;BME280;72192;52.114;5.424;2023-11-18T13:30:36;101595.03;;;7.14;100.00
81125;BME280;72192;52.114;5.424;2023-11-18T13:33:17;101591.63;;;7.12;100.00
81125;BME280;72192;52.114;5.424;2023-11-18T13:35:57;101586.00;;;7.15;100.00
81125;BME280;72192;52.114;5.424;2023-11-18T13:38:37;101585.00;;;7.16;100.00
81125;BME280;72192;52.114;5.424;2023-11-18T13:41:32;101573.28;;;7.17;100.00
81125;BME280;72192;52.114;5.424;2023-11-18T13:44:12;101561.59;;;7.18;100.00
81125;BME280;72192;52.114;5.424;2023-11-18T13:46:51;101559.63;;;7.21;100.00
81125;BME280;72192;52.114;5.424;2023-11-18T13:49:34;101570.25;;;7.22;100.00
81125;BME280;72192;52.114;5.424;2023-11-18T13:52:14;101554.00;;;7.24;100.00
81125;BME280;72192;52.114;5.424;2023-11-18T13:54:55;101569.25;;;7.23;100.00
81125;BME280;72192;52.114;5.424;2023-11-18T13:57:35;101552.28;;;7.23;100.00
81125;BME280;72192;52.114;5.424;2023-11-18T14:00:15;101545.09;;;7.23;100.00
81125;BME280;72192;52.114;5.424;2023-11-18T14:02:56;101534.47;;;7.22;100.00
81125;BME280;72192;52.114;5.424;2023-11-18T14:05:36;101522.88;;;7.21;100.00
81125;BME280;72192;52.114;5.424;2023-11-18T14:08:19;101504.94;;;7.22;100.00
81125;BME280;72192;52.114;5.424;2023-11-18T14:10:58;101504.94;;;7.22;100.00
81125;BME280;72192;52.114;5.424;2023-11-18T14:13:38;101491.78;;;7.18;100.00
81125;BME280;72192;52.114;5.424;2023-11-18T14:16:18;101475.66;;;7.18;100.00
81125;BME280;72192;52.114;5.424;2023-11-18T14:18:59;101481.88;;;7.19;100.00
81125;BME280;72192;52.114;5.424;2023-11-18T14:21:42;101474.69;;;7.19;100.00
81125;BME280;72192;52.114;5.424;2023-11-18T14:24:22;101466.75;;;7.18;100.00